Time;durP1;ratioP1;P1;durP2;ratioP2;P2;SDS_P1;SDS_P2;PMS_P1;PMS_P2;Temp;Humidity;BMP_temperature;BMP_pressure;BME280_temperature;BME280_humidity;BME280_pressure;Samples;Min_cycle;Max_cycle;Signal;HPM_P1;HPM_P2
2023/10/25 00:00:51;;;;;;;9.50;8.07;;;9.60;99.90;;;;;;5049752;28;20044;-90
2023/10/25 00:03:19;;;;;;;8.23;7.07;;;9.60;99.90;;;;;;5054237;28;20029;-93
2023/10/25 00:05:45;;;;;;;10.68;6.50;;;9.60;99.90;;;;;;5056988;28;20033;-91
2023/10/25 00:08:11;;;;;;;7.70;6.90;;;9.60;99.90;;;;;;5056128;28;20029;-90
2023/10/25 00:10:37;;;;;;;8.15;6.80;;;9.50;99.90;;;;;;5055911;28;20021;-92
2023/10/25 00:13:03;;;;;;;8.30;6.15;;;9.50;99.90;;;;;;5049184;28;20026;-91
2023/10/25 00:15:29;;;;;;;7.97;6.65;;;9.50;99.90;;;;;;5058139;28;20108;-92
2023/10/25 00:17:54;;;;;;;7.00;5.88;;;9.50;99.90;;;;;;5056343;28;20056;-93
2023/10/25 00:20:20;;;;;;;8.68;7.03;;;9.40;99.90;;;;;;5056888;28;20055;-94
2023/10/25 00:22:46;;;;;;;7.68;6.13;;;9.50;99.90;;;;;;5057195;28;20597;-92
2023/10/25 00:25:11;;;;;;;6.57;5.82;;;9.40;99.90;;;;;;5057063;28;20021;-91
2023/10/25 00:27:37;;;;;;;7.53;6.03;;;9.40;99.90;;;;;;5054397;28;20033;-93
2023/10/25 00:30:04;;;;;;;8.05;6.65;;;9.40;99.90;;;;;;5051828;28;20035;-92
2023/10/25 00:32:30;;;;;;;6.72;5.68;;;9.40;99.90;;;;;;5036730;28;20022;-89
2023/10/25 00:34:55;;;;;;;9.45;6.07;;;9.40;99.90;;;;;;5037148;28;20026;-89
2023/10/25 00:37:21;;;;;;;5.85;5.25;;;9.30;99.90;;;;;;5039081;28;20053;-91
2023/10/25 00:39:47;;;;;;;6.70;5.68;;;9.30;99.90;;;;;;5056754;28;20100;-92
2023/10/25 00:42:13;;;;;;;7.88;6.22;;;9.30;99.90;;;;;;5055415;28;20085;-93
2023/10/25 00:44:39;;;;;;;6.78;6.18;;;9.30;99.90;;;;;;5046194;28;20053;-92
2023/10/25 00:47:05;;;;;;;7.50;6.80;;;9.40;99.90;;;;;;5060438;28;20490;-90
2023/10/25 00:49:32;;;;;;;6.25;5.57;;;9.30;99.90;;;;;;5055253;28;20029;-91
2023/10/25 00:51:58;;;;;;;6.15;5.30;;;9.40;99.90;;;;;;5039758;28;20116;-90
2023/10/25 00:54:23;;;;;;;6.90;6.18;;;9.40;99.90;;;;;;5075150;28;20071;-91
2023/10/25 00:56:50;;;;;;;6.75;5.97;;;9.40;99.90;;;;;;5059337;28;20629;-92
2023/10/25 00:59:17;;;;;;;6.05;5.45;;;9.30;99.90;;;;;;5055320;28;20063;-92
2023/10/25 01:01:44;;;;;;;8.77;6.70;;;9.40;99.90;;;;;;5049999;28;20111;-93
2023/10/25 01:04:09;;;;;;;8.30;5.80;;;9.40;99.90;;;;;;5059779;28;20025;-92
2023/10/25 01:06:35;;;;;;;6.90;5.75;;;9.40;99.90;;;;;;5059601;28;20539;-92
2023/10/25 01:09:01;;;;;;;7.28;5.65;;;9.40;99.90;;;;;;5059448;28;20031;-91
2023/10/25 01:11:27;;;;;;;5.95;5.35;;;9.40;99.90;;;;;;5049550;28;20115;-90
2023/10/25 01:13:53;;;;;;;6.35;5.75;;;9.30;99.90;;;;;;5058472;28;20106;-92
2023/10/25 01:16:19;;;;;;;7.03;5.95;;;9.30;99.90;;;;;;5059956;28;20025;-92
2023/10/25 01:18:44;;;;;;;5.90;5.28;;;9.20;99.90;;;;;;5059108;28;20032;-92
2023/10/25 01:21:10;;;;;;;5.88;5.25;;;9.20;99.90;;;;;;5058798;28;20029;-92
2023/10/25 01:23:36;;;;;;;5.93;4.68;;;9.20;99.90;;;;;;5050933;28;20036;-91
2023/10/25 01:26:01;;;;;;;5.80;4.80;;;9.10;99.90;;;;;;5057782;28;20024;-91
2023/10/25 01:28:27;;;;;;;7.60;6.15;;;9.20;99.90;;;;;;5059226;28;20025;-91
2023/10/25 01:30:53;;;;;;;7.35;6.28;;;9.10;99.90;;;;;;5058906;28;20049;-92
2023/10/25 01:33:18;;;;;;;5.82;5.22;;;9.10;99.90;;;;;;5057400;28;20044;-90
2023/10/25 01:35:44;;;;;;;6.80;5.93;;;9.10;99.90;;;;;;5058812;28;20067;-93
2023/10/25 01:38:10;;;;;;;8.30;6.47;;;9.20;99.90;;;;;;5049050;28;20028;-89
2023/10/25 01:40:35;;;;;;;7.25;6.18;;;9.20;99.90;;;;;;5037855;28;20021;-90
2023/10/25 01:43:01;;;;;;;7.22;5.75;;;9.20;99.90;;;;;;5046342;28;20511;-91
2023/10/25 01:45:30;;;;;;;8.23;6.00;;;9.10;99.90;;;;;;5058918;28;20047;-89
2023/10/25 01:47:55;;;;;;;7.25;6.07;;;9.00;99.90;;;;;;5054615;28;20029;-91
2023/10/25 01:50:21;;;;;;;7.32;6.40;;;9.00;99.90;;;;;;5055880;28;20530;-90
2023/10/25 01:52:47;;;;;;;6.80;5.45;;;9.00;99.90;;;;;;5055953;28;20021;-92
2023/10/25 01:55:13;;;;;;;5.78;5.07;;;9.00;99.90;;;;;;5051120;28;20228;-91
2023/10/25 01:57:39;;;;;;;7.13;4.97;;;9.00;99.90;;;;;;5053602;28;20114;-91
2023/10/25 02:00:06;;;;;;;7.53;5.47;;;9.00;99.90;;;;;;5056672;28;20025;-92
2023/10/25 02:02:33;;;;;;;6.45;5.68;;;9.00;99.90;;;;;;5053414;28;20106;-92
2023/10/25 02:04:58;;;;;;;8.02;6.65;;;8.90;99.90;;;;;;5053889;28;20020;-89
2023/10/25 02:07:24;;;;;;;7.65;6.03;;;8.90;99.90;;;;;;5057974;28;20025;-94
2023/10/25 02:09:50;;;;;;;7.82;6.40;;;9.00;99.90;;;;;;5055912;28;20584;-92
2023/10/25 02:12:15;;;;;;;8.02;6.45;;;8.90;99.90;;;;;;5058259;28;20032;-91
2023/10/25 02:14:41;;;;;;;6.85;5.53;;;9.00;99.90;;;;;;5057514;28;20537;-91
2023/10/25 02:17:07;;;;;;;6.45;5.75;;;8.90;99.90;;;;;;5057447;28;20036;-88
2023/10/25 02:19:33;;;;;;;7.68;6.30;;;8.90;99.90;;;;;;5057557;28;20017;-91
2023/10/25 02:21:59;;;;;;;7.10;5.80;;;8.80;99.90;;;;;;5057197;28;20430;-92
2023/10/25 02:24:25;;;;;;;6.80;5.50;;;8.80;99.90;;;;;;5058325;28;20021;-93
2023/10/25 02:26:51;;;;;;;8.38;5.78;;;8.70;99.90;;;;;;5059745;28;20040;-91
2023/10/25 02:29:17;;;;;;;8.57;5.53;;;8.70;99.90;;;;;;5057559;28;20029;-92
2023/10/25 02:31:43;;;;;;;8.45;5.80;;;8.60;99.90;;;;;;5050293;28;20526;-91
2023/10/25 02:34:09;;;;;;;6.93;6.22;;;8.60;99.90;;;;;;5057458;28;20028;-92
2023/10/25 02:36:37;;;;;;;8.77;5.53;;;8.60;99.90;;;;;;5053764;28;20095;-90
2023/10/25 02:39:03;;;;;;;7.30;5.45;;;8.70;99.90;;;;;;5036491;28;20096;-92
2023/10/25 02:41:30;;;;;;;5.85;5.03;;;8.60;99.90;;;;;;5038710;28;20282;-93
2023/10/25 02:43:56;;;;;;;8.95;5.68;;;8.60;99.90;;;;;;5039743;28;20041;-91
2023/10/25 02:46:22;;;;;;;11.40;5.72;;;8.60;99.90;;;;;;5036574;28;20056;-92
2023/10/25 02:48:50;;;;;;;12.27;5.63;;;8.50;99.90;;;;;;5043775;28;20026;-91
2023/10/25 02:51:16;;;;;;;;;;;8.50;99.90;;;;;;5043631;28;20029;-91
2023/10/25 02:53:41;;;;;;;11.00;5.30;;;8.50;99.90;;;;;;5048898;28;19927;-92
2023/10/25 02:56:08;;;;;;;8.98;6.03;;;8.50;99.90;;;;;;5042430;28;20029;-91
2023/10/25 02:58:34;;;;;;;11.63;6.55;;;8.50;99.90;;;;;;5049861;28;20029;-91
2023/10/25 03:01:00;;;;;;;14.00;6.55;;;8.50;99.90;;;;;;5059156;28;20028;-91
2023/10/25 03:03:27;;;;;;;18.88;7.03;;;8.50;99.90;;;;;;5057188;28;20099;-92
2023/10/25 03:05:53;;;;;;;16.48;5.47;;;8.50;99.90;;;;;;5057947;28;20076;-92
2023/10/25 03:08:19;;;;;;;6.75;5.68;;;8.50;99.90;;;;;;5056263;28;20044;-89
2023/10/25 03:10:44;;;;;;;7.75;6.68;;;8.50;99.90;;;;;;5055841;28;20446;-92
2023/10/25 03:13:10;;;;;;;9.27;6.65;;;8.50;99.90;;;;;;5051652;28;20021;-92
2023/10/25 03:15:36;;;;;;;16.90;8.02;;;8.60;99.90;;;;;;5055451;28;20029;-92
2023/10/25 03:18:02;;;;;;;8.80;6.63;;;8.50;99.90;;;;;;5056900;28;20059;-93
2023/10/25 03:20:28;;;;;;;10.70;7.22;;;8.50;99.90;;;;;;5040705;28;20032;-91
2023/10/25 03:22:54;;;;;;;8.40;6.28;;;8.50;99.90;;;;;;5057528;28;20383;-91
2023/10/25 03:25:20;;;;;;;10.25;6.45;;;8.50;99.90;;;;;;5058316;28;20025;-92
2023/10/25 03:27:46;;;;;;;19.77;8.95;;;8.60;99.90;;;;;;5054487;28;20028;-92
2023/10/25 03:30:12;;;;;;;10.93;6.43;;;8.60;99.90;;;;;;5057448;28;20021;-91
2023/10/25 03:32:38;;;;;;;14.52;6.80;;;8.60;99.90;;;;;;5057099;28;20029;-92
2023/10/25 03:35:04;;;;;;;9.52;6.50;;;8.60;99.90;;;;;;5056881;28;20546;-91
2023/10/25 03:37:30;;;;;;;9.13;6.53;;;8.60;99.90;;;;;;5057180;28;20021;-90
2023/10/25 03:39:56;;;;;;;14.77;9.38;;;8.70;99.90;;;;;;5056591;28;20501;-91
2023/10/25 03:42:22;;;;;;;7.53;6.53;;;8.60;99.90;;;;;;5051494;28;20013;-91
2023/10/25 03:44:47;;;;;;;8.50;6.65;;;8.60;99.90;;;;;;5056887;28;20039;-91
2023/10/25 03:47:13;;;;;;;12.77;6.85;;;8.60;99.90;;;;;;5055117;28;20392;-91
2023/10/25 03:49:39;;;;;;;9.20;6.35;;;8.70;99.90;;;;;;5054410;28;20029;-93
2023/10/25 03:52:05;;;;;;;9.13;6.63;;;8.60;99.90;;;;;;5054797;28;20024;-91
2023/10/25 03:54:30;;;;;;;15.48;7.10;;;8.60;99.90;;;;;;5048707;28;20121;-92
2023/10/25 03:56:57;;;;;;;6.53;5.45;;;8.60;99.90;;;;;;5056972;28;20541;-90
2023/10/25 03:59:22;;;;;;;8.23;6.18;;;8.60;99.90;;;;;;5047467;28;20028;-91
2023/10/25 04:01:48;;;;;;;7.88;4.72;;;8.60;99.90;;;;;;5055028;28;20119;-90
2023/10/25 04:04:14;;;;;;;7.95;6.18;;;8.60;99.90;;;;;;5048846;28;20494;-91
2023/10/25 04:06:39;;;;;;;6.88;5.53;;;8.60;99.90;;;;;;5056315;28;20033;-92
2023/10/25 04:09:05;;;;;;;9.40;5.55;;;8.60;99.90;;;;;;5054794;28;20075;-91
2023/10/25 04:11:32;;;;;;;14.68;6.88;;;8.60;99.90;;;;;;5054856;28;20031;-91
2023/10/25 04:13:57;;;;;;;10.30;7.13;;;8.50;99.90;;;;;;5054428;28;20037;-92
2023/10/25 04:16:23;;;;;;;6.90;5.10;;;8.50;99.90;;;;;;5056677;28;20043;-91
2023/10/25 04:18:49;;;;;;;7.13;5.38;;;8.50;99.90;;;;;;5058242;28;20110;-92
2023/10/25 04:21:14;;;;;;;10.00;6.28;;;8.50;99.90;;;;;;5059617;28;20021;-91
2023/10/25 04:23:40;;;;;;;15.18;7.20;;;8.40;99.90;;;;;;5061019;28;20017;-92
2023/10/25 04:26:10;;;;;;;13.85;7.30;;;8.40;99.90;;;;;;5060212;28;20029;-93
2023/10/25 04:28:37;;;;;;;14.90;6.63;;;8.40;99.90;;;;;;5050425;28;20064;-95
2023/10/25 04:31:03;;;;;;;11.02;6.65;;;8.30;99.90;;;;;;5057496;28;20056;-91
2023/10/25 04:33:29;;;;;;;22.42;10.85;;;8.30;99.90;;;;;;5069190;28;20036;-92
2023/10/25 04:35:56;;;;;;;10.73;7.57;;;8.30;99.90;;;;;;5060203;28;20028;-93
2023/10/25 04:38:23;;;;;;;16.13;7.47;;;8.40;99.90;;;;;;5051326;28;20031;-92
2023/10/25 04:40:50;;;;;;;16.58;7.78;;;8.40;99.90;;;;;;5059905;28;20025;-92
2023/10/25 04:43:17;;;;;;;16.95;7.18;;;8.50;99.90;;;;;;5061303;28;20108;-92
2023/10/25 04:45:42;;;;;;;21.70;10.43;;;8.50;99.90;;;;;;5051639;28;20013;-94
2023/10/25 04:48:08;;;;;;;13.85;8.15;;;8.50;99.90;;;;;;5056119;28;20029;-93
2023/10/25 04:50:36;;;;;;;13.32;6.75;;;8.50;99.90;;;;;;5060877;28;20049;-92
2023/10/25 04:53:02;;;;;;;;;;;8.50;99.90;;;;;;5062241;28;20025;-93
2023/10/25 04:55:29;;;;;;;22.38;8.35;;;8.60;99.90;;;;;;5062748;28;19978;-92
2023/10/25 04:57:56;;;;;;;24.45;8.85;;;8.60;99.90;;;;;;5060370;28;20035;-93
2023/10/25 05:00:22;;;;;;;10.70;7.53;;;8.60;99.90;;;;;;5062797;28;20017;-90
2023/10/25 05:02:48;;;;;;;60.28;13.45;;;8.70;99.90;;;;;;5061716;28;20090;-91
2023/10/25 05:05:14;;;;;;;12.40;9.60;;;8.70;99.90;;;;;;5046288;28;20033;-91
2023/10/25 05:07:40;;;;;;;42.17;15.27;;;8.60;99.90;;;;;;5040745;28;20022;-93
2023/10/25 05:10:07;;;;;;;32.90;13.63;;;8.60;99.90;;;;;;5042384;28;20537;-92
2023/10/25 05:12:41;;;;;;;16.92;8.07;;;8.70;99.90;;;;;;5040859;28;20040;-93
2023/10/25 05:15:17;;;;;;;25.63;8.77;;;8.60;99.90;;;;;;5037748;28;20180;-92
2023/10/25 05:17:45;;;;;;;17.85;6.22;;;8.60;99.90;;;;;;5040114;28;20064;-94
2023/10/25 05:20:12;;;;;;;16.98;7.30;;;8.60;99.90;;;;;;5039907;28;20193;-91
2023/10/25 05:22:58;;;;;;;13.38;7.95;;;8.60;99.90;;;;;;5038170;28;20060;-92
2023/10/25 05:25:24;;;;;;;41.67;8.85;;;8.60;99.90;;;;;;5042214;28;20029;-91
2023/10/25 05:27:50;;;;;;;18.70;6.90;;;8.70;99.90;;;;;;5041830;28;20044;-92
2023/10/25 05:30:17;;;;;;;22.25;6.93;;;8.70;99.90;;;;;;5038173;28;20044;-91
2023/10/25 05:32:47;;;;;;;78.47;11.32;;;8.70;99.90;;;;;;5039928;28;20086;-92
2023/10/25 05:35:14;;;;;;;18.40;7.38;;;8.70;99.90;;;;;;5040288;28;20051;-91
2023/10/25 05:37:40;;;;;;;17.90;9.32;;;8.70;99.90;;;;;;5036974;28;20056;-93
2023/10/25 05:40:07;;;;;;;13.88;10.85;;;8.80;99.90;;;;;;5036226;28;20335;-93
2023/10/25 05:42:49;;;;;;;17.20;11.32;;;8.80;99.90;;;;;;5041163;28;20033;-94
2023/10/25 05:45:15;;;;;;;30.58;12.05;;;8.80;99.90;;;;;;5036661;28;20074;-92
2023/10/25 05:47:42;;;;;;;18.63;8.45;;;8.80;99.90;;;;;;5042017;28;20459;-91
2023/10/25 05:50:10;;;;;;;17.90;9.88;;;8.90;99.90;;;;;;5041142;28;20043;-93
2023/10/25 05:52:36;;;;;;;13.35;8.63;;;8.90;99.90;;;;;;5042462;28;20437;-90
2023/10/25 05:55:06;;;;;;;15.95;8.30;;;8.80;99.90;;;;;;5050255;28;20029;-94
2023/10/25 05:57:31;;;;;;;11.35;8.05;;;8.90;99.90;;;;;;5058482;28;20040;-92
2023/10/25 05:59:57;;;;;;;11.95;8.32;;;8.90;99.90;;;;;;5045175;28;20060;-93
2023/10/25 06:02:27;;;;;;;10.10;7.40;;;8.80;99.90;;;;;;5041604;28;20108;-92
2023/10/25 06:04:55;;;;;;;11.07;7.30;;;8.80;99.90;;;;;;5059466;28;20089;-91
2023/10/25 06:07:21;;;;;;;10.63;6.97;;;8.80;99.90;;;;;;5060247;28;20048;-92
2023/10/25 06:09:47;;;;;;;10.95;6.70;;;8.80;99.90;;;;;;5059307;28;20530;-94
2023/10/25 06:12:13;;;;;;;9.48;7.18;;;8.80;99.90;;;;;;5061962;28;20025;-94
2023/10/25 06:14:39;;;;;;;8.73;6.60;;;8.70;99.90;;;;;;5063884;28;20040;-93
2023/10/25 06:17:05;;;;;;;10.05;7.63;;;8.80;99.90;;;;;;5062635;28;20021;-93
2023/10/25 06:19:30;;;;;;;8.48;6.63;;;8.80;99.90;;;;;;5062314;28;20082;-94
2023/10/25 06:21:57;;;;;;;8.85;7.28;;;8.70;99.90;;;;;;5064316;28;20042;-95
2023/10/25 06:24:22;;;;;;;8.98;6.45;;;8.70;99.90;;;;;;5063645;28;20143;-93
2023/10/25 06:26:48;;;;;;;9.88;6.88;;;8.60;99.90;;;;;;5061713;28;20427;-93
2023/10/25 06:29:14;;;;;;;8.50;6.10;;;8.70;99.90;;;;;;5057668;28;20378;-94
2023/10/25 06:31:40;;;;;;;7.90;6.55;;;8.70;99.90;;;;;;5054381;28;20024;-93
2023/10/25 06:34:05;;;;;;;6.70;5.40;;;8.70;99.90;;;;;;5050293;28;20029;-94
2023/10/25 06:36:32;;;;;;;7.53;5.68;;;8.70;99.90;;;;;;5059863;28;20509;-93
2023/10/25 06:38:58;;;;;;;6.15;5.10;;;8.70;99.90;;;;;;5059600;28;20490;-92
2023/10/25 06:41:24;;;;;;;8.25;5.85;;;8.80;99.90;;;;;;5059883;28;20738;-92
2023/10/25 06:43:50;;;;;;;7.38;5.80;;;8.80;99.90;;;;;;5055173;28;20102;-91
2023/10/25 06:46:17;;;;;;;6.22;4.85;;;8.80;99.90;;;;;;5060313;28;20381;-92
2023/10/25 06:48:43;;;;;;;7.70;5.38;;;8.80;99.90;;;;;;5054851;28;20395;-93
2023/10/25 06:51:09;;;;;;;7.65;5.43;;;8.80;99.90;;;;;;5048235;28;20064;-95
2023/10/25 06:53:36;;;;;;;7.07;6.07;;;8.70;99.90;;;;;;5054333;28;20032;-95
2023/10/25 06:56:05;;;;;;;6.18;5.25;;;8.70;99.90;;;;;;5059839;28;20406;-94
2023/10/25 06:58:31;;;;;;;5.80;5.03;;;8.80;99.90;;;;;;5060968;28;20029;-94
2023/10/25 07:00:58;;;;;;;6.15;5.55;;;8.80;99.90;;;;;;5061606;28;20017;-93
2023/10/25 07:03:35;;;;;;;7.45;5.25;;;8.90;99.90;;;;;;5060073;28;20029;-92
2023/10/25 07:06:03;;;;;;;9.80;5.43;;;8.90;99.90;;;;;;5059449;28;20017;-93
2023/10/25 07:08:29;;;;;;;8.57;6.00;;;8.90;99.90;;;;;;5060228;28;20059;-91
2023/10/25 07:10:55;;;;;;;6.50;4.90;;;9.00;99.90;;;;;;5060182;28;20017;-93
2023/10/25 07:13:20;;;;;;;8.15;6.05;;;9.00;99.90;;;;;;5059912;28;20051;-93
2023/10/25 07:15:47;;;;;;;7.82;5.10;;;9.00;99.90;;;;;;5061497;28;20025;-94
2023/10/25 07:18:12;;;;;;;6.07;4.40;;;9.00;99.90;;;;;;5051359;28;20079;-93
2023/10/25 07:20:38;;;;;;;6.88;4.95;;;9.00;99.90;;;;;;5041767;28;20021;-93
2023/10/25 07:23:04;;;;;;;6.80;4.63;;;9.10;99.90;;;;;;5057937;28;20025;-94
2023/10/25 07:25:31;;;;;;;7.30;5.25;;;9.10;99.90;;;;;;5056715;28;20018;-93
2023/10/25 07:27:56;;;;;;;8.77;5.40;;;9.10;99.90;;;;;;5046922;28;20046;-93
2023/10/25 07:30:22;;;;;;;6.40;4.82;;;9.20;99.90;;;;;;5042765;28;20084;-94
2023/10/25 07:32:48;;;;;;;5.78;4.97;;;9.30;99.90;;;;;;5059207;28;20033;-93
2023/10/25 07:35:14;;;;;;;5.72;4.30;;;9.30;99.90;;;;;;5058806;28;20036;-93
2023/10/25 07:37:40;;;;;;;8.90;5.20;;;9.40;99.90;;;;;;5058352;28;20399;-91
2023/10/25 07:40:06;;;;;;;8.02;5.35;;;9.40;99.90;;;;;;5058313;28;20025;-93
2023/10/25 07:42:32;;;;;;;6.22;4.85;;;9.50;99.90;;;;;;5059963;28;20024;-92
2023/10/25 07:44:58;;;;;;;6.15;5.50;;;9.60;99.90;;;;;;5058786;28;20028;-93
2023/10/25 07:47:24;;;;;;;8.60;5.43;;;9.70;99.90;;;;;;5058148;28;20025;-92
2023/10/25 07:49:49;;;;;;;5.63;4.78;;;9.80;99.90;;;;;;5059764;28;20028;-93
2023/10/25 07:52:16;;;;;;;7.28;4.95;;;9.80;99.90;;;;;;5051627;28;20028;-93
2023/10/25 07:54:43;;;;;;;6.13;5.00;;;9.90;99.90;;;;;;5057247;28;20029;-92
2023/10/25 07:57:11;;;;;;;5.72;4.88;;;9.90;99.90;;;;;;5063851;28;20029;-93
2023/10/25 07:59:37;;;;;;;6.80;5.05;;;10.00;99.90;;;;;;5049798;28;20021;-94
2023/10/25 08:02:03;;;;;;;6.10;4.60;;;10.10;99.90;;;;;;5065739;28;20021;-92
2023/10/25 08:04:29;;;;;;;6.03;5.15;;;10.10;99.90;;;;;;5063832;28;20054;-93
2023/10/25 08:06:55;;;;;;;5.32;4.80;;;10.30;99.90;;;;;;5064071;28;20075;-94
2023/10/25 08:09:21;;;;;;;4.88;4.38;;;10.40;99.90;;;;;;5059460;28;20116;-94
2023/10/25 08:11:46;;;;;;;5.38;4.88;;;10.60;99.90;;;;;;5073341;28;20021;-93
2023/10/25 08:14:15;;;;;;;5.63;4.53;;;10.70;99.90;;;;;;5062657;28;20051;-92
2023/10/25 08:16:42;;;;;;;5.50;4.97;;;10.80;99.90;;;;;;5057136;28;20033;-92
2023/10/25 08:19:08;;;;;;;5.72;3.67;;;10.90;99.90;;;;;;5062913;28;20021;-93
2023/10/25 08:21:35;;;;;;;5.00;4.50;;;10.90;99.90;;;;;;5059481;28;20029;-93
2023/10/25 08:24:02;;;;;;;4.18;3.78;;;11.00;99.90;;;;;;5065024;28;20013;-93
2023/10/25 08:26:28;;;;;;;5.05;4.55;;;11.10;99.90;;;;;;5063855;28;20825;-94
2023/10/25 08:28:54;;;;;;;3.67;2.78;;;11.20;99.90;;;;;;5061661;28;20059;-94
2023/10/25 08:31:19;;;;;;;5.65;3.92;;;11.40;99.90;;;;;;5059588;28;20033;-93
2023/10/25 08:33:45;;;;;;;3.40;3.08;;;11.50;99.90;;;;;;5060403;28;20037;-95
2023/10/25 08:36:11;;;;;;;5.00;3.80;;;11.50;99.90;;;;;;5052136;28;20029;-94
2023/10/25 08:38:37;;;;;;;4.95;3.47;;;11.60;99.90;;;;;;5054343;28;20032;-93
2023/10/25 08:41:04;;;;;;;3.90;3.47;;;11.60;99.90;;;;;;5046475;28;20045;-92
2023/10/25 08:43:34;;;;;;;3.13;2.83;;;11.60;99.90;;;;;;5044134;28;20022;-94
2023/10/25 08:46:03;;;;;;;3.70;3.05;;;11.60;99.90;;;;;;5058744;28;20025;-94
2023/10/25 08:48:30;;;;;;;3.63;3.33;;;11.60;99.90;;;;;;5053995;28;20025;-93
2023/10/25 08:50:56;;;;;;;4.13;3.55;;;11.50;99.90;;;;;;5062548;28;20021;-94
2023/10/25 08:53:24;;;;;;;3.95;2.90;;;11.50;99.90;;;;;;5061479;28;20025;-93
2023/10/25 08:55:51;;;;;;;3.72;3.35;;;11.60;99.90;;;;;;5062184;28;20430;-92
2023/10/25 08:58:18;;;;;;;4.25;3.05;;;11.60;99.90;;;;;;5060519;28;20025;-93
2023/10/25 09:00:44;;;;;;;4.05;3.50;;;11.60;99.90;;;;;;5063468;28;20021;-93
2023/10/25 09:03:30;;;;;;;3.83;3.45;;;11.60;99.90;;;;;;5061854;28;20099;-93
2023/10/25 09:05:55;;;;;;;5.63;3.67;;;11.60;99.90;;;;;;5061249;28;20019;-92
2023/10/25 09:08:24;;;;;;;4.85;3.17;;;11.60;99.90;;;;;;5060579;28;20025;-93
2023/10/25 09:10:55;;;;;;;5.70;3.25;;;11.70;99.90;;;;;;5058100;28;20025;-92
2023/10/25 09:13:20;;;;;;;5.63;3.67;;;11.90;99.90;;;;;;5045315;28;20111;-93
2023/10/25 09:15:46;;;;;;;5.13;2.95;;;11.90;99.90;;;;;;5043467;28;20368;-94
2023/10/25 09:18:12;;;;;;;3.83;2.90;;;11.90;99.90;;;;;;5042219;28;20026;-94
2023/10/25 09:20:37;;;;;;;4.30;3.10;;;12.00;99.90;;;;;;5058855;28;20031;-93
2023/10/25 09:23:15;;;;;;;5.93;3.40;;;12.10;99.90;;;;;;5066545;28;20017;-92
2023/10/25 09:25:40;;;;;;;3.20;2.90;;;12.00;99.90;;;;;;5057904;28;20029;-92
2023/10/25 09:28:26;;;;;;;4.20;3.03;;;12.10;99.90;;;;;;5057403;28;20064;-95
2023/10/25 09:30:53;;;;;;;4.40;3.00;;;12.20;99.90;;;;;;5066561;28;20028;-94
2023/10/25 09:33:19;;;;;;;3.15;2.85;;;12.30;99.90;;;;;;5074663;28;20055;-92
2023/10/25 09:35:45;;;;;;;3.88;3.28;;;12.40;99.90;;;;;;5078340;28;20009;-94
2023/10/25 09:38:11;;;;;;;3.80;3.40;;;12.50;99.90;;;;;;5078016;28;20013;-93
2023/10/25 09:40:38;;;;;;;4.80;3.08;;;12.50;99.90;;;;;;5078314;28;20039;-94
2023/10/25 09:43:14;;;;;;;3.47;3.17;;;12.50;99.90;;;;;;5071488;28;20017;-96
2023/10/25 09:45:42;;;;;;;4.57;2.78;;;12.40;99.90;;;;;;5076193;28;20545;-93
2023/10/25 09:48:11;;;;;;;3.75;2.78;;;12.50;99.90;;;;;;5054941;28;20087;-94
2023/10/25 09:50:47;;;;;;;2.60;2.40;;;12.40;99.90;;;;;;5065440;28;20078;-93
2023/10/25 09:53:28;;;;;;;3.40;2.53;;;12.30;99.90;;;;;;5070553;28;20047;-94
2023/10/25 09:56:00;;;;;;;2.65;2.45;;;12.30;99.90;;;;;;5069063;28;20029;-93
2023/10/25 09:58:29;;;;;;;3.35;2.05;;;12.30;99.90;;;;;;5064435;28;20049;-93
2023/10/25 10:00:55;;;;;;;3.72;3.42;;;12.30;99.90;;;;;;5063171;28;20021;-93
2023/10/25 10:03:47;;;;;;;3.50;2.95;;;12.30;99.90;;;;;;5065401;28;20017;-94
2023/10/25 10:06:39;;;;;;;4.30;3.28;;;12.30;99.90;;;;;;5055579;28;20116;-95
2023/10/25 10:09:19;;;;;;;3.72;3.42;;;12.40;99.90;;;;;;5063279;28;20468;-93
2023/10/25 10:11:53;;;;;;;4.43;2.50;;;12.40;99.90;;;;;;5058076;28;20029;-93
2023/10/25 10:14:32;;;;;;;5.20;2.95;;;12.40;99.90;;;;;;5042447;28;20025;-92
2023/10/25 10:17:07;;;;;;;4.35;3.17;;;12.40;99.90;;;;;;5057806;28;20050;-94
2023/10/25 10:19:36;;;;;;;5.22;2.70;;;12.40;99.90;;;;;;5045124;28;20557;-94
2023/10/25 10:22:06;;;;;;;3.90;2.90;;;12.40;99.90;;;;;;5056324;28;20025;-94
2023/10/25 10:24:40;;;;;;;4.35;3.15;;;12.40;99.90;;;;;;5044886;28;20066;-93
2023/10/25 10:27:06;;;;;;;2.88;2.58;;;12.50;99.90;;;;;;5060524;28;20029;-95
2023/10/25 10:29:31;;;;;;;3.47;2.70;;;12.60;99.90;;;;;;5060281;28;20521;-93
2023/10/25 10:32:02;;;;;;;4.28;2.38;;;12.60;99.90;;;;;;5062503;28;20039;-92
2023/10/25 10:34:49;;;;;;;3.50;3.20;;;12.70;99.90;;;;;;5041807;28;20069;-93
2023/10/25 10:37:16;;;;;;;;;;;12.70;99.90;;;;;;5043801;28;20488;-93
2023/10/25 10:39:57;;;;;;;3.60;2.50;;;12.70;99.90;;;;;;5061338;28;19912;-94
2023/10/25 10:42:29;;;;;;;6.43;2.60;;;12.80;99.90;;;;;;5041240;28;20021;-94
2023/10/25 10:45:14;;;;;;;3.35;2.17;;;12.80;99.90;;;;;;5056204;28;20028;-94
2023/10/25 10:47:41;;;;;;;2.90;2.60;;;12.70;99.90;;;;;;5052605;28;20033;-94
2023/10/25 10:50:14;;;;;;;4.45;2.55;;;12.70;99.90;;;;;;5053158;28;20021;-94
2023/10/25 10:52:42;;;;;;;3.85;3.33;;;12.80;99.90;;;;;;5048595;28;20040;-94
2023/10/25 10:55:08;;;;;;;4.93;2.95;;;12.90;99.90;;;;;;5061494;28;20541;-93
2023/10/25 10:57:38;;;;;;;4.07;3.05;;;12.90;99.90;;;;;;5059146;28;20063;-94
2023/10/25 11:00:10;;;;;;;4.60;2.53;;;13.00;99.90;;;;;;5059962;28;20021;-94
2023/10/25 11:02:43;;;;;;;5.22;3.75;;;13.00;99.90;;;;;;5060600;28;20017;-94
2023/10/25 11:05:09;;;;;;;3.88;3.03;;;13.00;99.90;;;;;;5058575;28;20092;-92
2023/10/25 11:07:37;;;;;;;4.97;3.85;;;13.00;99.90;;;;;;5065156;28;20028;-95
2023/10/25 11:10:04;;;;;;;4.00;3.47;;;13.10;99.90;;;;;;5066890;28;20025;-94
2023/10/25 11:12:29;;;;;;;4.43;3.55;;;13.10;99.90;;;;;;5060979;28;20315;-94
2023/10/25 11:15:03;;;;;;;4.72;3.95;;;13.20;99.90;;;;;;5071070;28;20494;-91
2023/10/25 11:17:32;;;;;;;3.58;2.88;;;13.20;99.90;;;;;;5059980;28;20029;-95
2023/10/25 11:19:59;;;;;;;5.55;4.95;;;13.30;99.90;;;;;;5055315;28;20028;-95
2023/10/25 11:22:25;;;;;;;6.07;3.78;;;13.30;99.90;;;;;;5056546;28;20112;-94
2023/10/25 11:24:51;;;;;;;4.72;3.97;;;13.30;99.90;;;;;;5062060;28;20021;-93
2023/10/25 11:27:17;;;;;;;4.70;4.10;;;13.30;99.90;;;;;;5064230;28;20027;-95
2023/10/25 11:29:43;;;;;;;5.65;4.38;;;13.30;99.90;;;;;;5061210;28;20039;-94
2023/10/25 11:32:14;;;;;;;5.50;4.72;;;13.40;99.90;;;;;;5061446;28;20025;-94
2023/10/25 11:34:42;;;;;;;6.70;4.78;;;13.50;99.90;;;;;;5063247;28;20022;-94
2023/10/25 11:37:08;;;;;;;6.82;4.13;;;13.60;99.90;;;;;;5048953;28;20047;-93
2023/10/25 11:39:53;;;;;;;;;;;13.60;99.90;;;;;;5041963;28;20049;-93
2023/10/25 11:42:19;;;;;;;5.10;3.67;;;13.70;99.90;;;;;;5029173;28;19909;-93
2023/10/25 11:44:45;;;;;;;4.60;3.65;;;13.70;99.90;;;;;;5028141;28;20109;-93
2023/10/25 11:47:18;;;;;;;4.72;3.30;;;13.70;99.90;;;;;;5035288;28;20097;-93
2023/10/25 11:49:44;;;;;;;8.75;7.03;;;13.70;99.90;;;;;;5031494;28;20097;-94
2023/10/25 11:52:10;;;;;;;5.50;5.00;;;13.60;99.90;;;;;;5033085;28;20058;-91
2023/10/25 11:54:35;;;;;;;9.90;9.00;;;13.70;99.90;;;;;;5054326;28;20037;-95
2023/10/25 11:57:01;;;;;;;5.13;4.72;;;13.70;99.90;;;;;;5036490;28;20053;-94
2023/10/25 11:59:27;;;;;;;5.65;3.50;;;13.70;99.90;;;;;;5040569;28;20476;-94
2023/10/25 12:01:52;;;;;;;4.80;4.18;;;13.70;99.90;;;;;;5040267;28;20030;-93
2023/10/25 12:04:18;;;;;;;6.57;5.97;;;13.60;99.90;;;;;;5055119;28;20021;-95
2023/10/25 12:06:44;;;;;;;4.90;4.38;;;13.70;99.90;;;;;;5040948;28;20056;-95
2023/10/25 12:09:09;;;;;;;3.92;3.45;;;13.70;99.90;;;;;;5038346;28;20090;-95
2023/10/25 12:11:35;;;;;;;4.45;3.92;;;13.70;99.90;;;;;;5053500;28;20199;-93
2023/10/25 12:14:01;;;;;;;4.82;3.65;;;13.70;99.90;;;;;;5038937;28;20030;-94
2023/10/25 12:16:26;;;;;;;128.38;79.97;;;13.50;99.90;;;;;;5035548;28;20037;-94
2023/10/25 12:18:52;;;;;;;24.65;16.35;;;13.50;99.90;;;;;;5027312;28;20021;-95
2023/10/25 12:21:18;;;;;;;7.10;5.97;;;13.40;99.90;;;;;;5035966;28;20031;-94
2023/10/25 12:23:44;;;;;;;4.93;3.30;;;13.40;99.90;;;;;;5021794;28;20026;-94
2023/10/25 12:26:10;;;;;;;2.65;2.15;;;13.30;99.90;;;;;;5037485;28;20056;-92
2023/10/25 12:28:37;;;;;;;2.95;2.53;;;13.20;99.90;;;;;;5039689;28;20017;-94
2023/10/25 12:31:02;;;;;;;3.92;2.63;;;13.10;99.90;;;;;;5038899;28;20018;-94
2023/10/25 12:33:28;;;;;;;3.58;2.42;;;13.10;99.90;;;;;;5023068;28;20030;-95
2023/10/25 12:35:54;;;;;;;2.63;2.33;;;13.00;99.90;;;;;;5041965;28;20488;-93
2023/10/25 12:38:19;;;;;;;3.53;2.78;;;12.90;99.90;;;;;;5027513;28;20388;-95
2023/10/25 12:40:45;;;;;;;3.15;2.30;;;12.90;99.90;;;;;;5029653;28;20440;-94
2023/10/25 12:43:11;;;;;;;4.00;3.25;;;12.90;99.90;;;;;;5031324;28;20392;-95
2023/10/25 12:45:37;;;;;;;7.20;3.38;;;12.80;99.90;;;;;;5031777;28;20014;-93
2023/10/25 12:48:03;;;;;;;4.20;3.90;;;12.80;99.90;;;;;;5046498;28;20093;-94
2023/10/25 12:50:29;;;;;;;4.40;2.80;;;12.80;99.90;;;;;;5033394;28;20037;-94
2023/10/25 12:52:54;;;;;;;3.63;3.33;;;12.80;99.90;;;;;;5055022;28;20033;-94